Time;durP1;ratioP1;P1;durP2;ratioP2;P2;SDS_P1;SDS_P2;PMS_P1;PMS_P2;Temp;Humidity;BMP_temperature;BMP_pressure;BME280_temperature;BME280_humidity;BME280_pressure;Samples;Min_cycle;Max_cycle;Signal;HPM_P1;HPM_P2
2022/07/18 00:02:14;;;;;;;82.30;58.10;;;27.40;99.90;;;;;;5032215;28;20386;-64
2022/07/18 00:04:41;;;;;;;83.80;55.85;;;27.50;99.90;;;;;;5034758;28;20017;-64
2022/07/18 00:07:10;;;;;;;64.57;46.05;;;27.50;99.90;;;;;;5034686;28;20053;-64
2022/07/18 00:09:38;;;;;;;51.47;41.08;;;27.50;99.90;;;;;;5032350;28;20060;-64
2022/07/18 00:12:06;;;;;;;54.15;41.67;;;27.60;99.90;;;;;;5034600;28;20049;-63
2022/07/18 00:14:33;;;;;;;51.92;39.28;;;27.70;99.90;;;;;;5033416;28;20020;-64
2022/07/18 00:17:01;;;;;;;52.35;40.30;;;27.70;99.90;;;;;;5034549;28;20025;-64
2022/07/18 00:19:28;;;;;;;54.72;40.70;;;27.70;99.90;;;;;;5034707;28;20056;-64
2022/07/18 00:21:54;;;;;;;52.80;38.47;;;27.80;99.90;;;;;;5032027;28;20022;-63
2022/07/18 00:24:22;;;;;;;64.90;43.58;;;27.80;99.90;;;;;;5034329;28;20035;-64
2022/07/18 00:26:49;;;;;;;63.55;43.28;;;27.90;99.90;;;;;;5037957;28;20570;-64
2022/07/18 00:29:15;;;;;;;59.78;44.65;;;27.90;99.90;;;;;;5034056;28;20091;-64
2022/07/18 00:31:42;;;;;;;65.38;46.33;;;27.90;99.90;;;;;;5041603;28;20025;-63
2022/07/18 00:34:08;;;;;;;69.85;48.53;;;28.00;99.90;;;;;;5038731;28;20009;-62
2022/07/18 00:36:35;;;;;;;57.13;41.38;;;28.10;99.90;;;;;;5033850;28;20025;-62
2022/07/18 00:39:03;;;;;;;56.97;41.15;;;28.10;99.90;;;;;;5033846;28;20013;-63
2022/07/18 00:41:29;;;;;;;58.45;41.47;;;28.10;99.90;;;;;;5033814;28;20030;-63
2022/07/18 00:43:57;;;;;;;54.58;37.75;;;28.10;99.90;;;;;;5050720;28;20527;-65
2022/07/18 00:46:26;;;;;;;41.00;27.05;;;28.20;99.90;;;;;;5054529;28;20036;-63
2022/07/18 00:48:53;;;;;;;26.30;21.30;;;28.20;99.90;;;;;;5054091;28;20029;-64
2022/07/18 00:51:20;;;;;;;31.73;22.00;;;28.30;99.90;;;;;;5037184;28;20060;-64
2022/07/18 00:53:48;;;;;;;27.80;19.83;;;28.30;99.90;;;;;;5034192;28;20480;-64
2022/07/18 00:56:19;;;;;;;40.83;25.77;;;28.40;99.90;;;;;;5033979;28;20393;-64
2022/07/18 00:58:46;;;;;;;46.88;27.73;;;28.40;99.90;;;;;;5034100;28;20080;-65
2022/07/18 01:03:42;;;;;;;39.67;28.48;;;28.50;99.90;;;;;;5034517;28;20052;-64
2022/07/18 01:06:08;;;;;;;46.67;30.90;;;28.50;99.90;;;;;;5033995;28;20030;-64
2022/07/18 01:08:37;;;;;;;62.90;38.33;;;28.50;99.90;;;;;;5033689;28;20025;-65
2022/07/18 01:11:05;;;;;;;54.55;33.15;;;28.60;99.90;;;;;;5052215;28;20488;-63
2022/07/18 01:13:32;;;;;;;42.55;29.30;;;28.60;99.90;;;;;;5053830;28;20036;-63
2022/07/18 01:15:58;;;;;;;58.03;31.05;;;28.70;99.90;;;;;;5045489;28;20029;-64
2022/07/18 01:18:25;;;;;;;46.75;27.63;;;28.80;99.90;;;;;;5033833;28;20018;-63
2022/07/18 01:20:51;;;;;;;36.92;26.60;;;28.80;99.90;;;;;;5033824;28;20025;-64
2022/07/18 01:23:18;;;;;;;25.80;18.15;;;28.80;99.90;;;;;;5033678;28;20475;-63
2022/07/18 01:25:45;;;;;;;23.98;14.55;;;28.90;99.90;;;;;;5045939;28;20029;-64
2022/07/18 01:28:11;;;;;;;24.38;15.40;;;29.00;99.90;;;;;;5054123;28;20445;-64
2022/07/18 01:30:38;;;;;;;22.45;16.02;;;28.90;99.90;;;;;;5053645;28;20033;-63
2022/07/18 01:33:04;;;;;;;26.48;16.13;;;28.90;99.90;;;;;;5053729;28;20362;-63
2022/07/18 01:35:32;;;;;;;22.35;15.88;;;28.90;99.90;;;;;;5053606;28;20041;-63
2022/07/18 01:38:01;;;;;;;24.92;18.00;;;28.90;99.90;;;;;;5053352;28;20045;-64
2022/07/18 01:40:28;;;;;;;41.90;25.52;;;29.10;99.90;;;;;;5053418;28;20025;-64
2022/07/18 01:42:55;;;;;;;57.20;26.75;;;29.20;99.90;;;;;;5053420;28;20465;-63
2022/07/18 01:45:22;;;;;;;29.67;20.05;;;29.30;99.90;;;;;;5053091;28;20091;-63
2022/07/18 01:47:48;;;;;;;26.77;17.88;;;29.30;99.90;;;;;;5053337;28;20470;-64
2022/07/18 01:50:15;;;;;;;27.25;18.05;;;29.30;99.90;;;;;;5053156;28;20033;-64
2022/07/18 01:52:42;;;;;;;27.35;18.50;;;29.40;99.90;;;;;;5053092;28;20056;-64
2022/07/18 01:55:10;;;;;;;32.67;20.98;;;29.50;99.90;;;;;;5053250;28;20428;-63
2022/07/18 01:57:37;;;;;;;27.80;18.15;;;29.50;99.90;;;;;;5053166;28;20037;-64
2022/07/18 02:00:06;;;;;;;24.05;14.32;;;29.70;99.90;;;;;;5053075;28;20116;-63
2022/07/18 02:02:33;;;;;;;18.80;14.05;;;29.90;99.90;;;;;;5053417;28;20155;-64
2022/07/18 02:05:00;;;;;;;23.40;15.13;;;29.90;99.90;;;;;;5053120;28;20035;-61
2022/07/18 02:07:28;;;;;;;20.00;12.77;;;29.90;99.90;;;;;;5053381;28;20440;-63
2022/07/18 02:09:56;;;;;;;20.35;13.45;;;29.90;99.90;;;;;;5053089;28;20529;-63
2022/07/18 02:12:23;;;;;;;21.98;13.43;;;29.80;99.90;;;;;;5052900;28;20037;-63
2022/07/18 02:14:50;;;;;;;19.45;13.70;;;29.70;99.90;;;;;;5053049;28;20537;-63
2022/07/18 02:17:17;;;;;;;21.45;13.00;;;29.70;99.90;;;;;;5053249;28;20075;-64
2022/07/18 02:19:44;;;;;;;15.82;11.68;;;29.70;99.90;;;;;;5053002;28;20017;-63
2022/07/18 02:22:10;;;;;;;23.23;13.55;;;29.80;99.90;;;;;;5048214;28;20048;-63
2022/07/18 02:24:37;;;;;;;18.70;13.05;;;29.80;99.90;;;;;;5037033;28;20048;-63
2022/07/18 02:27:05;;;;;;;21.27;14.55;;;29.90;99.90;;;;;;5044742;28;20112;-63
2022/07/18 02:29:31;;;;;;;22.80;13.05;;;30.00;99.90;;;;;;5056380;28;20032;-63
2022/07/18 02:31:58;;;;;;;14.88;11.35;;;30.10;99.90;;;;;;5036908;28;20022;-63
2022/07/18 02:34:24;;;;;;;20.05;12.23;;;30.20;99.90;;;;;;5045473;28;20466;-64
2022/07/18 02:36:51;;;;;;;20.25;13.43;;;30.30;99.90;;;;;;5056608;28;20040;-62
2022/07/18 02:39:19;;;;;;;28.38;15.18;;;30.40;99.90;;;;;;5048868;28;20021;-62
2022/07/18 02:41:46;;;;;;;20.98;13.50;;;30.40;99.90;;;;;;5053366;28;20036;-63
2022/07/18 02:44:12;;;;;;;21.23;13.05;;;30.50;99.90;;;;;;5036858;28;20082;-63
2022/07/18 02:46:39;;;;;;;17.88;13.05;;;30.60;99.90;;;;;;5036698;28;20060;-63
2022/07/18 02:49:05;;;;;;;21.83;12.57;;;30.60;99.90;;;;;;5055919;28;20046;-64
2022/07/18 02:51:33;;;;;;;21.38;15.10;;;30.60;99.90;;;;;;5056331;28;20032;-61
2022/07/18 02:53:59;;;;;;;22.60;14.70;;;30.60;99.90;;;;;;5056520;28;20474;-63
2022/07/18 02:56:26;;;;;;;18.25;13.50;;;30.60;99.90;;;;;;5052381;28;20037;-63
2022/07/18 02:58:52;;;;;;;21.70;13.57;;;30.40;99.90;;;;;;5036252;28;20014;-64
2022/07/18 03:01:19;;;;;;;19.50;14.65;;;30.30;99.90;;;;;;5036466;28;20116;-63
2022/07/18 03:03:45;;;;;;;18.48;12.68;;;30.30;99.90;;;;;;5036556;28;20029;-63
2022/07/18 03:06:12;;;;;;;20.52;11.52;;;30.50;99.90;;;;;;5036376;28;20030;-62
2022/07/18 03:08:39;;;;;;;14.30;10.80;;;30.60;99.90;;;;;;5036307;28;20394;-63
2022/07/18 03:11:05;;;;;;;29.38;19.20;;;30.70;99.90;;;;;;5036319;28;20112;-63
2022/07/18 03:13:32;;;;;;;94.43;51.47;;;30.80;99.90;;;;;;5036028;28;20479;-62
2022/07/18 03:15:59;;;;;;;27.15;20.48;;;30.70;99.90;;;;;;5036060;28;20028;-62
2022/07/18 03:18:25;;;;;;;162.73;137.35;;;30.70;99.90;;;;;;5035990;28;20013;-62
2022/07/18 03:20:52;;;;;;;50.38;36.38;;;30.70;99.90;;;;;;5035906;28;20053;-64
2022/07/18 03:23:19;;;;;;;198.82;153.90;;;30.70;99.90;;;;;;5035896;28;20029;-63
2022/07/18 03:25:45;;;;;;;44.30;25.70;;;30.60;99.90;;;;;;5053875;28;20025;-64
2022/07/18 03:28:12;;;;;;;28.58;18.63;;;30.60;99.90;;;;;;5055838;28;20055;-64
2022/07/18 03:30:38;;;;;;;24.65;16.83;;;30.60;99.90;;;;;;5056007;28;20060;-64
2022/07/18 03:33:05;;;;;;;23.08;14.05;;;30.60;99.90;;;;;;5054599;28;20032;-64
2022/07/18 03:35:32;;;;;;;20.73;15.13;;;30.70;99.90;;;;;;5055902;28;20033;-63
2022/07/18 03:37:58;;;;;;;19.17;13.20;;;30.70;99.90;;;;;;5055454;28;20025;-64
2022/07/18 03:40:25;;;;;;;40.70;32.28;;;30.70;99.90;;;;;;5055484;28;20029;-65
2022/07/18 03:42:51;;;;;;;38.92;28.77;;;30.60;99.90;;;;;;5055570;28;20108;-65
2022/07/18 03:45:18;;;;;;;41.92;22.45;;;30.70;99.90;;;;;;5055314;28;20021;-65
2022/07/18 03:47:44;;;;;;;59.80;39.40;;;30.80;99.90;;;;;;5055518;28;20075;-65
2022/07/18 03:50:11;;;;;;;48.00;33.60;;;31.00;99.90;;;;;;5055338;28;20090;-65
2022/07/18 03:52:38;;;;;;;43.60;33.90;;;31.10;99.90;;;;;;5055144;28;20021;-64
2022/07/18 03:55:04;;;;;;;74.60;56.33;;;31.30;99.90;;;;;;5055238;28;20437;-65
2022/07/18 03:57:31;;;;;;;36.15;24.80;;;31.30;99.90;;;;;;5055063;28;20040;-65
2022/07/18 03:59:57;;;;;;;31.92;15.63;;;31.40;99.90;;;;;;5055018;28;20028;-65
2022/07/18 04:02:24;;;;;;;25.83;14.50;;;31.50;99.90;;;;;;5055078;28;20052;-63
2022/07/18 04:04:51;;;;;;;27.50;15.32;;;31.50;99.90;;;;;;5054992;28;20458;-63
2022/07/18 04:07:17;;;;;;;18.88;12.73;;;31.50;99.90;;;;;;5054844;28;20029;-65
2022/07/18 04:09:44;;;;;;;19.65;12.10;;;31.40;99.90;;;;;;5054969;28;20104;-65
2022/07/18 04:12:11;;;;;;;24.80;20.20;;;31.50;99.90;;;;;;5054943;28;20021;-64
2022/07/18 04:14:37;;;;;;;40.20;27.98;;;31.50;99.90;;;;;;5049186;28;20021;-63
2022/07/18 04:17:04;;;;;;;17.30;10.10;;;31.60;99.90;;;;;;5039539;28;20021;-63
2022/07/18 04:19:30;;;;;;;15.77;10.05;;;31.70;99.90;;;;;;5039033;28;20053;-63
2022/07/18 04:21:57;;;;;;;14.98;10.10;;;31.70;99.90;;;;;;5034668;28;20409;-63
2022/07/18 04:24:23;;;;;;;14.32;9.40;;;31.80;99.90;;;;;;5037562;28;20018;-61
2022/07/18 04:26:50;;;;;;;13.32;9.65;;;32.00;99.90;;;;;;5054531;28;20031;-64
2022/07/18 04:29:17;;;;;;;13.48;10.45;;;32.00;99.90;;;;;;5054381;28;20090;-64
2022/07/18 04:31:43;;;;;;;13.98;10.55;;;32.00;99.90;;;;;;5054351;28;20212;-63
2022/07/18 04:34:10;;;;;;;14.95;10.88;;;32.00;99.90;;;;;;5054331;28;20025;-63
2022/07/18 04:36:36;;;;;;;15.52;9.50;;;31.90;99.90;;;;;;5054412;28;20040;-63
2022/07/18 04:39:03;;;;;;;16.90;12.07;;;31.90;99.90;;;;;;5054278;28;20053;-63
2022/07/18 04:41:29;;;;;;;14.10;10.45;;;31.80;99.90;;;;;;5054332;28;20104;-63
2022/07/18 04:43:56;;;;;;;14.98;9.68;;;31.70;99.90;;;;;;5054264;28;20025;-62
2022/07/18 04:46:23;;;;;;;15.27;10.00;;;31.70;99.90;;;;;;5054211;28;20013;-62
2022/07/18 04:48:49;;;;;;;13.75;10.50;;;31.60;99.90;;;;;;5054178;28;20036;-64
2022/07/18 04:51:16;;;;;;;15.32;10.63;;;31.60;99.90;;;;;;5054163;28;20020;-63
2022/07/18 04:53:42;;;;;;;13.98;10.63;;;31.80;99.90;;;;;;5053874;28;20021;-63
2022/07/18 04:56:09;;;;;;;18.50;11.98;;;31.90;99.90;;;;;;5054165;28;20066;-63
2022/07/18 04:58:35;;;;;;;20.75;12.70;;;32.00;99.90;;;;;;5053912;28;20521;-63
2022/07/18 05:01:02;;;;;;;18.70;12.38;;;32.10;99.90;;;;;;5051992;28;20041;-62
2022/07/18 05:03:28;;;;;;;18.13;10.35;;;32.10;99.90;;;;;;5043986;28;20035;-63
2022/07/18 05:05:55;;;;;;;13.50;9.70;;;32.10;99.90;;;;;;5053930;28;20028;-64
2022/07/18 05:08:21;;;;;;;15.73;10.88;;;32.00;99.90;;;;;;5053805;28;20029;-63
2022/07/18 05:10:48;;;;;;;16.67;9.25;;;32.00;99.90;;;;;;5053865;28;20036;-63
2022/07/18 05:13:14;;;;;;;11.90;9.48;;;32.20;99.90;;;;;;5053864;28;20074;-63
2022/07/18 05:15:41;;;;;;;15.52;10.15;;;32.30;99.90;;;;;;5053681;28;20028;-63
2022/07/18 05:18:07;;;;;;;14.10;10.35;;;32.40;99.90;;;;;;5053715;28;20104;-65
2022/07/18 05:20:35;;;;;;;20.73;10.90;;;32.50;99.90;;;;;;5053699;28;20104;-63
2022/07/18 05:23:01;;;;;;;18.35;11.30;;;32.70;99.90;;;;;;5053436;28;20436;-62
2022/07/18 05:25:28;;;;;;;21.98;13.60;;;32.80;99.90;;;;;;5053861;28;20481;-62
2022/07/18 05:27:54;;;;;;;18.20;11.50;;;32.80;99.90;;;;;;5053447;28;20033;-63
2022/07/18 05:30:23;;;;;;;11.18;9.25;;;32.80;99.90;;;;;;5040722;28;20438;-63
2022/07/18 05:32:51;;;;;;;13.25;9.25;;;32.70;98.70;;;;;;5032212;28;20466;-63
2022/07/18 05:35:18;;;;;;;13.23;8.75;;;32.60;98.40;;;;;;5032181;28;20033;-63
2022/07/18 05:37:45;;;;;;;17.77;9.77;;;32.60;99.30;;;;;;5032119;28;20025;-62
2022/07/18 05:40:14;;;;;;;14.48;9.15;;;32.70;98.80;;;;;;5032232;28;20040;-62
2022/07/18 05:42:41;;;;;;;13.23;8.93;;;32.80;98.40;;;;;;5032569;28;20037;-63
2022/07/18 05:45:08;;;;;;;10.15;8.57;;;32.90;98.50;;;;;;5031699;28;20432;-62
2022/07/18 05:47:35;;;;;;;23.17;15.20;;;33.00;97.80;;;;;;5029166;28;20064;-64
2022/07/18 05:50:02;;;;;;;16.25;10.60;;;32.90;98.10;;;;;;5031957;28;20436;-63
2022/07/18 05:52:28;;;;;;;19.67;9.30;;;32.90;98.60;;;;;;5031746;28;20021;-66
2022/07/18 05:54:55;;;;;;;15.20;11.35;;;32.80;98.20;;;;;;5031369;28;20009;-66
2022/07/18 05:57:21;;;;;;;17.40;12.82;;;32.80;98.90;;;;;;5031774;28;20053;-67
2022/07/18 05:59:48;;;;;;;16.40;10.52;;;32.90;98.90;;;;;;5031950;28;20022;-68
2022/07/18 06:02:15;;;;;;;30.90;15.45;;;32.90;98.10;;;;;;5032070;28;20111;-67
2022/07/18 06:04:41;;;;;;;18.77;10.90;;;32.90;98.50;;;;;;5035636;28;20032;-64
2022/07/18 06:07:08;;;;;;;18.67;10.32;;;32.90;98.20;;;;;;5034718;28;20080;-64
2022/07/18 06:09:34;;;;;;;9.73;8.60;;;33.00;97.10;;;;;;5031882;28;20048;-66
2022/07/18 06:12:01;;;;;;;22.00;11.38;;;33.00;96.50;;;;;;5032068;28;20083;-63
2022/07/18 06:14:29;;;;;;;14.23;10.23;;;33.00;96.70;;;;;;5033339;28;20117;-64
2022/07/18 06:16:56;;;;;;;13.88;9.13;;;32.90;96.50;;;;;;5032967;28;20030;-63
2022/07/18 06:19:23;;;;;;;18.40;11.57;;;32.90;96.80;;;;;;5036292;28;20080;-63
2022/07/18 06:21:50;;;;;;;15.10;10.32;;;33.00;97.00;;;;;;5044009;28;20025;-62
2022/07/18 06:24:16;;;;;;;14.73;9.80;;;33.00;96.50;;;;;;5052622;28;20389;-62
2022/07/18 06:26:43;;;;;;;14.50;9.80;;;32.90;96.50;;;;;;5053097;28;20029;-63
2022/07/18 06:29:10;;;;;;;17.17;10.38;;;32.80;95.70;;;;;;5052801;28;20023;-64
2022/07/18 06:31:37;;;;;;;15.48;9.73;;;32.80;95.40;;;;;;5052759;28;20469;-64
2022/07/18 06:34:03;;;;;;;18.83;11.00;;;32.80;95.80;;;;;;5052650;28;20055;-64
2022/07/18 06:36:30;;;;;;;15.18;9.43;;;32.80;95.60;;;;;;5052543;28;20094;-64
2022/07/18 06:38:56;;;;;;;21.90;11.38;;;32.70;95.70;;;;;;5052467;28;20575;-64
2022/07/18 06:41:23;;;;;;;14.45;9.82;;;32.70;96.20;;;;;;5052531;28;20108;-64
2022/07/18 06:43:49;;;;;;;10.98;8.93;;;32.60;95.60;;;;;;5052604;28;20104;-64
2022/07/18 06:46:16;;;;;;;25.02;11.43;;;32.50;95.50;;;;;;5052397;28;20025;-64
2022/07/18 06:48:43;;;;;;;13.70;10.93;;;32.50;95.90;;;;;;5052442;28;20375;-65
2022/07/18 06:51:09;;;;;;;19.75;14.68;;;32.50;95.90;;;;;;5052473;28;20029;-63
2022/07/18 06:53:36;;;;;;;15.77;11.02;;;32.60;96.20;;;;;;5052459;28;20033;-63
2022/07/18 06:56:02;;;;;;;16.08;10.48;;;32.60;96.00;;;;;;5052542;28;20025;-64
2022/07/18 06:58:31;;;;;;;13.90;9.82;;;32.60;96.10;;;;;;5052543;28;20041;-62
2022/07/18 07:00:58;;;;;;;15.35;11.02;;;32.70;96.00;;;;;;5052446;28;20064;-64
2022/07/18 07:03:25;;;;;;;19.63;11.88;;;32.90;96.10;;;;;;5052567;28;20400;-64
2022/07/18 07:05:51;;;;;;;33.30;17.50;;;33.10;95.80;;;;;;5045961;28;20457;-65
2022/07/18 07:08:18;;;;;;;17.00;10.73;;;33.40;95.40;;;;;;5048262;28;20037;-64
2022/07/18 07:10:44;;;;;;;17.30;9.90;;;33.50;94.20;;;;;;5055912;28;20397;-64
2022/07/18 07:13:11;;;;;;;19.00;11.45;;;33.70;94.80;;;;;;5055917;28;20068;-65
2022/07/18 07:15:40;;;;;;;13.23;9.75;;;33.60;93.50;;;;;;5055755;28;20422;-66
2022/07/18 07:18:06;;;;;;;14.45;9.07;;;33.60;94.10;;;;;;5055845;28;20025;-66
2022/07/18 07:20:33;;;;;;;15.45;10.05;;;33.60;93.40;;;;;;5055749;28;20109;-65
2022/07/18 07:23:04;;;;;;;14.45;10.13;;;33.40;92.90;;;;;;5055600;28;20025;-65
2022/07/18 07:25:31;;;;;;;15.25;10.07;;;33.20;93.00;;;;;;5055678;28;20032;-66
2022/07/18 07:27:57;;;;;;;9.98;8.73;;;33.20;93.50;;;;;;5055694;28;20057;-63
2022/07/18 07:30:24;;;;;;;14.85;9.38;;;33.10;93.50;;;;;;5055549;28;20108;-62
2022/07/18 07:32:51;;;;;;;14.52;9.45;;;33.10;92.80;;;;;;5055434;28;20060;-62
2022/07/18 07:35:19;;;;;;;16.00;9.45;;;33.10;92.80;;;;;;5039197;28;20045;-64
2022/07/18 07:37:49;;;;;;;14.23;9.75;;;33.00;93.40;;;;;;5034281;28;20025;-62
2022/07/18 07:40:17;;;;;;;15.80;11.38;;;33.00;92.80;;;;;;5035211;28;20032;-64
2022/07/18 07:42:43;;;;;;;13.68;9.77;;;32.90;92.70;;;;;;5034954;28;20049;-66
2022/07/18 07:45:11;;;;;;;15.15;9.43;;;32.90;92.30;;;;;;5033827;28;20482;-64
2022/07/18 07:47:38;;;;;;;16.27;11.60;;;33.00;92.80;;;;;;5035264;28;20379;-64
2022/07/18 07:50:06;;;;;;;23.55;11.55;;;33.10;92.70;;;;;;5035302;28;20029;-67
2022/07/18 07:52:33;;;;;;;19.48;11.38;;;33.20;92.20;;;;;;5034888;28;20087;-66
2022/07/18 07:55:00;;;;;;;18.17;10.50;;;33.10;92.80;;;;;;5035080;28;20459;-67
2022/07/18 07:57:27;;;;;;;14.13;10.13;;;33.20;92.60;;;;;;5035043;28;20041;-66
2022/07/18 07:59:53;;;;;;;16.63;9.98;;;33.40;92.60;;;;;;5034801;28;20021;-67
2022/07/18 08:02:20;;;;;;;19.13;9.55;;;33.50;91.30;;;;;;5034912;28;20026;-67
2022/07/18 08:04:46;;;;;;;15.88;9.98;;;33.60;91.00;;;;;;5034799;28;20398;-66
2022/07/18 08:07:13;;;;;;;16.02;10.57;;;33.80;90.70;;;;;;5034465;28;20033;-65
2022/07/18 08:09:39;;;;;;;21.45;11.80;;;34.00;91.50;;;;;;5034857;28;20076;-66
2022/07/18 08:12:06;;;;;;;20.95;13.43;;;34.10;91.90;;;;;;5034683;28;20287;-67
2022/07/18 08:14:33;;;;;;;19.90;13.32;;;34.30;91.00;;;;;;5034795;28;20029;-65
2022/07/18 08:17:00;;;;;;;16.20;12.02;;;34.40;90.30;;;;;;5035029;28;20025;-64
2022/07/18 08:19:26;;;;;;;16.30;10.23;;;34.50;90.20;;;;;;5034102;28;20022;-65
2022/07/18 08:21:53;;;;;;;17.65;10.82;;;34.30;90.00;;;;;;5034446;28;20030;-65
2022/07/18 08:24:19;;;;;;;14.63;10.43;;;34.10;90.30;;;;;;5034800;28;20386;-66
2022/07/18 08:26:46;;;;;;;20.50;11.18;;;34.10;89.70;;;;;;5034472;28;20029;-66
2022/07/18 08:29:12;;;;;;;18.35;11.23;;;34.20;90.20;;;;;;5034566;28;20022;-68
2022/07/18 08:31:39;;;;;;;16.08;11.95;;;34.10;90.40;;;;;;5034356;28;20021;-67
2022/07/18 08:34:05;;;;;;;23.23;15.55;;;34.00;90.50;;;;;;5034462;28;20024;-66
2022/07/18 08:36:32;;;;;;;21.33;13.73;;;34.00;90.00;;;;;;5034392;28;20534;-65
2022/07/18 08:38:59;;;;;;;19.25;12.32;;;34.00;90.40;;;;;;5034087;28;20064;-66
2022/07/18 08:41:28;;;;;;;15.35;11.48;;;34.10;90.90;;;;;;5034460;28;20028;-65
2022/07/18 08:43:56;;;;;;;13.13;10.65;;;34.10;89.60;;;;;;5034183;28;20474;-66
2022/07/18 08:46:23;;;;;;;15.10;10.70;;;34.20;89.20;;;;;;5034082;28;20025;-67
2022/07/18 08:48:51;;;;;;;18.80;12.70;;;34.20;89.70;;;;;;5034035;28;20029;-67
2022/07/18 08:51:19;;;;;;;17.25;11.70;;;34.30;88.20;;;;;;5034000;28;20033;-68
2022/07/18 08:53:48;;;;;;;19.40;13.35;;;34.40;86.90;;;;;;5034284;28;20025;-65
2022/07/18 08:56:14;;;;;;;16.95;12.32;;;34.30;89.70;;;;;;5033315;28;20032;-67
2022/07/18 08:58:41;;;;;;;19.10;11.90;;;34.30;86.70;;;;;;5042792;28;20493;-67
2022/07/18 09:01:08;;;;;;;15.98;11.18;;;34.40;87.70;;;;;;5042499;28;20033;-67
2022/07/18 09:03:34;;;;;;;14.20;10.70;;;34.40;88.10;;;;;;5053742;28;20025;-67
2022/07/18 09:06:10;;;;;;;16.77;10.32;;;34.30;86.80;;;;;;5043472;28;20092;-66
2022/07/18 09:08:39;;;;;;;16.92;10.57;;;34.20;85.40;;;;;;5049471;28;20032;-65
2022/07/18 09:11:11;;;;;;;17.52;11.55;;;34.20;85.00;;;;;;5037996;28;20022;-68
2022/07/18 09:13:39;;;;;;;17.13;11.00;;;34.10;86.10;;;;;;5034268;28;20112;-71
2022/07/18 09:16:10;;;;;;;18.67;10.32;;;34.10;85.00;;;;;;5037406;28;20021;-68
2022/07/18 09:18:40;;;;;;;16.02;10.07;;;34.10;86.30;;;;;;5036073;28;20029;-67
2022/07/18 09:21:09;;;;;;;18.60;10.32;;;34.10;87.20;;;;;;5033635;28;20032;-68
2022/07/18 09:23:39;;;;;;;15.55;10.35;;;34.10;85.70;;;;;;5030964;28;20551;-69
2022/07/18 09:26:07;;;;;;;14.00;10.15;;;34.10;84.50;;;;;;5033315;28;20025;-66
2022/07/18 09:28:38;;;;;;;15.85;10.60;;;34.00;85.00;;;;;;5033949;28;20022;-66
2022/07/18 09:31:19;;;;;;;14.43;10.25;;;34.00;85.50;;;;;;5032948;28;20026;-67
2022/07/18 09:34:06;;;;;;;13.90;11.15;;;34.00;85.30;;;;;;5032376;28;20033;-66
2022/07/18 09:36:36;;;;;;;14.57;11.77;;;34.00;85.90;;;;;;5037932;28;20137;-67
2022/07/18 09:39:19;;;;;;;16.05;12.75;;;33.90;85.80;;;;;;5037366;28;20033;-67
2022/07/18 09:44:53;;;;;;;20.60;13.68;;;33.90;87.70;;;;;;5030460;28;20540;-67
2022/07/18 09:47:35;;;;;;;20.50;15.52;;;33.90;86.70;;;;;;5032974;28;20029;-68
2022/07/18 09:55:29;;;;;;;22.65;14.95;;;33.90;85.40;;;;;;5035692;28;20561;-66
2022/07/18 10:06:44;;;;;;;23.97;15.00;;;33.80;86.90;;;;;;5033144;28;20013;-68
2022/07/18 10:12:05;;;;;;;20.08;14.07;;;33.80;85.20;;;;;;5031441;28;20116;-68
2022/07/18 10:14:33;;;;;;;23.17;15.27;;;33.80;86.10;;;;;;5032211;28;20509;-67
2022/07/18 10:17:00;;;;;;;20.23;14.43;;;33.80;85.70;;;;;;5032355;28;20033;-69
2022/07/18 10:19:27;;;;;;;23.10;13.90;;;33.80;85.80;;;;;;5031728;28;20057;-69
2022/07/18 10:21:56;;;;;;;23.48;13.93;;;33.70;84.50;;;;;;5031307;28;20072;-69
2022/07/18 10:24:26;;;;;;;26.40;15.52;;;33.70;85.50;;;;;;5031608;28;20517;-68
2022/07/18 10:26:57;;;;;;;37.30;21.35;;;33.70;85.30;;;;;;5031306;28;20021;-70
2022/07/18 10:29:24;;;;;;;25.70;17.48;;;33.70;87.70;;;;;;5029355;28;20388;-68
2022/07/18 10:31:56;;;;;;;31.35;19.40;;;33.70;87.00;;;;;;5031523;28;20029;-68
2022/07/18 10:34:32;;;;;;;42.17;27.30;;;33.60;87.40;;;;;;5029170;28;20470;-69
2022/07/18 10:37:02;;;;;;;33.22;21.25;;;33.60;87.60;;;;;;5037486;28;20401;-69
2022/07/18 10:39:33;;;;;;;36.28;22.60;;;33.60;87.70;;;;;;5035822;28;20068;-69
2022/07/18 10:42:01;;;;;;;32.80;20.73;;;33.60;88.00;;;;;;5033202;28;20505;-69
2022/07/18 10:44:28;;;;;;;48.05;31.65;;;33.60;88.00;;;;;;5035200;28;20071;-69
2022/07/18 10:47:00;;;;;;;52.50;33.03;;;33.60;87.70;;;;;;5035084;28;20028;-68
2022/07/18 10:49:47;;;;;;;50.92;34.78;;;33.60;88.00;;;;;;5033124;28;20488;-67
2022/07/18 10:52:19;;;;;;;58.83;39.08;;;33.60;88.80;;;;;;5033982;28;20041;-69
2022/07/18 10:55:05;;;;;;;53.30;32.67;;;33.40;88.70;;;;;;5032911;28;20367;-72
2022/07/18 10:57:42;;;;;;;49.55;29.80;;;33.40;88.60;;;;;;5033572;28;20057;-68
2022/07/18 11:00:13;;;;;;;80.97;51.53;;;33.40;88.20;;;;;;5033269;28;20021;-68
2022/07/18 11:02:42;;;;;;;81.63;56.08;;;33.30;88.00;;;;;;5034841;28;20026;-68
2022/07/18 11:05:14;;;;;;;83.93;55.20;;;33.20;87.80;;;;;;5034716;28;20048;-68
2022/07/18 11:08:01;;;;;;;118.50;77.47;;;33.30;87.50;;;;;;5032093;28;20055;-71
2022/07/18 11:10:33;;;;;;;102.60;66.90;;;33.20;87.40;;;;;;5037154;28;20029;-69
2022/07/18 11:13:05;;;;;;;117.15;72.82;;;33.10;86.60;;;;;;5034605;28;20075;-70
2022/07/18 11:15:54;;;;;;;76.43;45.03;;;33.10;87.00;;;;;;5034639;28;20091;-69
2022/07/18 11:18:21;;;;;;;75.57;45.03;;;33.10;86.80;;;;;;5034705;28;20025;-70
2022/07/18 11:20:48;;;;;;;106.70;59.40;;;33.00;87.00;;;;;;5034710;28;20471;-68
2022/07/18 11:23:21;;;;;;;84.30;48.10;;;33.00;87.00;;;;;;5034530;28;20021;-68
2022/07/18 11:25:51;;;;;;;146.20;72.60;;;33.00;86.80;;;;;;5032593;28;20052;-69
2022/07/18 11:28:19;;;;;;;106.45;50.90;;;32.90;89.10;;;;;;5034175;28;20033;-69
2022/07/18 11:30:58;;;;;;;52.20;28.80;;;32.90;91.00;;;;;;5034618;28;20421;-70
2022/07/18 11:33:27;;;;;;;45.88;27.10;;;32.70;92.40;;;;;;5032052;28;20028;-70
2022/07/18 11:36:03;;;;;;;43.83;27.00;;;32.60;93.10;;;;;;5034325;28;20349;-70
2022/07/18 11:38:30;;;;;;;36.67;22.63;;;32.60;93.30;;;;;;5033068;28;20452;-70
2022/07/18 11:40:56;;;;;;;40.20;24.52;;;32.60;93.40;;;;;;5034155;28;20017;-70
2022/07/18 11:43:27;;;;;;;44.20;26.27;;;32.60;93.80;;;;;;5040258;28;20090;-70
2022/07/18 11:45:59;;;;;;;46.30;28.42;;;32.50;93.50;;;;;;5034153;28;20100;-71
2022/07/18 11:48:25;;;;;;;31.08;19.38;;;32.40;93.70;;;;;;5033889;28;20061;-69
2022/07/18 11:50:52;;;;;;;31.73;19.80;;;32.30;93.90;;;;;;5033828;28;20063;-69
2022/07/18 11:53:18;;;;;;;34.15;20.05;;;32.20;94.20;;;;;;5032960;28;20017;-68
2022/07/18 11:55:45;;;;;;;31.65;19.52;;;32.10;94.40;;;;;;5033715;28;20013;-68
2022/07/18 11:58:13;;;;;;;30.08;20.23;;;32.00;94.40;;;;;;5033540;28;20041;-68
2022/07/18 12:00:43;;;;;;;37.08;19.98;;;31.90;94.90;;;;;;5036985;28;20478;-67
2022/07/18 12:03:12;;;;;;;37.65;21.35;;;31.90;95.20;;;;;;5035994;28;20034;-68
2022/07/18 12:05:44;;;;;;;36.70;23.98;;;31.90;95.30;;;;;;5035839;28;20017;-69
2022/07/18 12:08:16;;;;;;;30.42;20.00;;;31.80;95.40;;;;;;5035430;28;20393;-71
2022/07/18 12:10:43;;;;;;;30.98;20.42;;;31.80;95.70;;;;;;5031540;28;20083;-68
2022/07/18 12:13:09;;;;;;;36.15;18.50;;;31.70;95.90;;;;;;5039956;28;20028;-67
2022/07/18 12:15:39;;;;;;;25.42;18.33;;;31.50;96.20;;;;;;5045591;28;20107;-69
2022/07/18 12:18:06;;;;;;;28.27;18.27;;;31.40;96.50;;;;;;5034452;28;20035;-68
2022/07/18 12:20:32;;;;;;;30.35;19.27;;;31.30;97.00;;;;;;5034385;28;20049;-67
2022/07/18 12:23:11;;;;;;;27.33;18.58;;;31.20;97.30;;;;;;5025086;28;20514;-68
2022/07/18 12:25:43;;;;;;;30.40;18.98;;;31.10;97.80;;;;;;5033838;28;20104;-67
2022/07/18 12:28:13;;;;;;;30.48;17.80;;;31.10;98.10;;;;;;5025796;28;20494;-70
2022/07/18 12:30:40;;;;;;;23.73;16.27;;;31.00;98.20;;;;;;5034932;28;20449;-65
2022/07/18 12:33:09;;;;;;;29.27;17.42;;;31.00;98.80;;;;;;5034743;28;20025;-67
2022/07/18 12:35:36;;;;;;;25.30;16.77;;;31.00;99.20;;;;;;5034547;28;20385;-68
2022/07/18 12:38:06;;;;;;;30.40;18.30;;;31.00;99.00;;;;;;5033481;28;20024;-67
2022/07/18 12:40:37;;;;;;;24.38;18.15;;;30.90;99.30;;;;;;5033810;28;20033;-66
2022/07/18 12:43:08;;;;;;;24.70;18.27;;;30.80;99.80;;;;;;5033032;28;20087;-71
2022/07/18 12:45:36;;;;;;;32.08;19.30;;;30.80;99.90;;;;;;5032770;28;20539;-68
2022/07/18 12:48:03;;;;;;;31.15;17.60;;;30.80;99.90;;;;;;5033137;28;20500;-68
2022/07/18 12:50:30;;;;;;;32.05;18.58;;;30.80;99.90;;;;;;5033307;28;20021;-67
2022/07/18 12:52:57;;;;;;;23.70;16.52;;;30.70;99.90;;;;;;5033907;28;20466;-67
2022/07/18 12:55:25;;;;;;;29.33;17.42;;;30.60;99.90;;;;;;5033582;28;20025;-69